createdAt,value
2023-05-22T00:01:26.588Z,98876.31
2023-05-22T00:04:30.703Z,98875.97
2023-05-22T00:07:34.745Z,98882.91
2023-05-22T00:10:38.921Z,98870.56
2023-05-22T00:13:44.451Z,98866.66
2023-05-22T00:16:49.208Z,98869.88
2023-05-22T00:19:53.685Z,98857.25
2023-05-22T00:22:58.084Z,98862.56
2023-05-22T00:26:02.044Z,98853.75
2023-05-22T00:29:07.359Z,98853.16
2023-05-22T00:32:11.394Z,98852.69
2023-05-22T00:35:15.179Z,98856.88
2023-05-22T00:38:33.732Z,98860.28
2023-05-22T00:41:38.678Z,98852.06
2023-05-22T00:44:44.048Z,98859.13
2023-05-22T00:47:47.975Z,98850.63
2023-05-22T00:50:53.410Z,98846.75
2023-05-22T00:53:58.193Z,98836.63
2023-05-22T00:57:03.625Z,98845.22
2023-05-22T01:00:12.112Z,98838.84
2023-05-22T01:03:16.855Z,98839.19
2023-05-22T01:06:21.816Z,98844.69
2023-05-22T01:09:26.228Z,98837.06
2023-05-22T01:12:40.127Z,98848.81
2023-05-22T01:16:01.514Z,98840.53
2023-05-22T01:19:34.744Z,98843.75
2023-05-22T01:23:32.812Z,98841.13
2023-05-22T01:27:14.996Z,98840.63
2023-05-22T01:30:45.805Z,98841.53
2023-05-22T01:33:55.639Z,98841.66
2023-05-22T01:37:02.143Z,98840.81
2023-05-22T01:40:08.296Z,98844.56
2023-05-22T01:43:16.227Z,98842.56
2023-05-22T01:46:21.391Z,98846.53
2023-05-22T01:49:26.538Z,98845.38
2023-05-22T01:52:42.083Z,98844.75
2023-05-22T01:55:59.023Z,98853.53
2023-05-22T01:59:16.032Z,98847.53
2023-05-22T02:02:25.795Z,98848.84
2023-05-22T02:05:35.904Z,98845.16
2023-05-22T02:08:43.723Z,98849.34
2023-05-22T02:11:49.479Z,98840.66
2023-05-22T02:14:54.517Z,98850.06
2023-05-22T02:18:02.121Z,98844.88
2023-05-22T02:21:08.590Z,98848.63
2023-05-22T02:24:12.340Z,98850.94
2023-05-22T02:27:16.884Z,98843.91
2023-05-22T02:30:20.604Z,98843.25
2023-05-22T02:33:29.966Z,98845.63
2023-05-22T02:36:34.138Z,98842.53
2023-05-22T02:39:38.163Z,98844.03
2023-05-22T02:42:42.121Z,98827.22
2023-05-22T02:45:46.465Z,98836.38
2023-05-22T02:48:51.591Z,98826.25
2023-05-22T02:51:56.128Z,98830.84
2023-05-22T02:54:59.699Z,98825.88
2023-05-22T02:58:03.841Z,98822.56
2023-05-22T03:01:09.141Z,98827.16
2023-05-22T03:04:15.196Z,98828.78
2023-05-22T03:07:20.215Z,98824.22
2023-05-22T03:10:24.761Z,98825.88
2023-05-22T03:13:28.511Z,98825.44
2023-05-22T03:16:34.577Z,98822.50
2023-05-22T03:19:40.282Z,98822.50
2023-05-22T03:22:44.890Z,98825.56
2023-05-22T03:25:49.403Z,98824.50
2023-05-22T03:28:54.026Z,98822.03
2023-05-22T03:31:59.115Z,98829.91
2023-05-22T03:35:05.593Z,98832.38
2023-05-22T03:38:09.273Z,98831.13
2023-05-22T03:41:13.865Z,98833.38
2023-05-22T03:44:17.888Z,98828.19
2023-05-22T03:47:22.209Z,98829.03
2023-05-22T03:50:27.525Z,98825.19
2023-05-22T03:53:31.507Z,98829.72
2023-05-22T03:56:36.423Z,98817.75
2023-05-22T03:59:40.859Z,98822.84
2023-05-22T04:02:47.165Z,98823.13
2023-05-22T04:05:52.836Z,98818.44
2023-05-22T04:08:56.540Z,98824.38
2023-05-22T04:12:01.748Z,98819.00
2023-05-22T04:15:06.581Z,98824.66
2023-05-22T04:18:11.956Z,98821.88
2023-05-22T04:21:17.687Z,98820.25
2023-05-22T04:24:23.223Z,98827.41
2023-05-22T04:27:29.821Z,98831.91
2023-05-22T04:30:34.510Z,98835.31
2023-05-22T04:33:38.740Z,98829.81
2023-05-22T04:36:45.294Z,98832.97
2023-05-22T04:39:52.993Z,98837.47
2023-05-22T04:43:00.047Z,98837.78
2023-05-22T04:46:04.005Z,98830.63
2023-05-22T04:49:08.589Z,98830.19
2023-05-22T04:52:14.018Z,98828.19
2023-05-22T04:55:19.191Z,98835.38
2023-05-22T04:58:23.633Z,98832.75
2023-05-22T05:01:29.964Z,98830.75
2023-05-22T05:04:36.089Z,98834.75
2023-05-22T05:07:44.228Z,98834.41
2023-05-22T05:10:48.875Z,98830.72
2023-05-22T05:13:53.312Z,98833.97
2023-05-22T05:16:57.199Z,98824.16
2023-05-22T05:20:01.306Z,98832.50
2023-05-22T05:23:06.409Z,98831.53
2023-05-22T05:26:10.279Z,98831.72
2023-05-22T05:29:14.483Z,98834.91
2023-05-22T05:32:26.070Z,98836.72
2023-05-22T05:35:50.583Z,98842.13
2023-05-22T05:38:58.528Z,98841.97
2023-05-22T05:42:02.757Z,98827.75
2023-05-22T05:45:07.738Z,98826.28
2023-05-22T05:48:12.041Z,98826.44
2023-05-22T05:51:20.892Z,98823.88
2023-05-22T05:54:27.299Z,98829.78
2023-05-22T05:57:34.827Z,98828.56
2023-05-22T06:00:40.504Z,98817.78
2023-05-22T06:03:44.649Z,98821.63
2023-05-22T06:06:52.163Z,98828.81
2023-05-22T06:09:57.302Z,98831.41
2023-05-22T06:13:23.702Z,98823.97
2023-05-22T06:16:28.271Z,98822.47
2023-05-22T06:19:32.423Z,98821.81
2023-05-22T06:22:36.604Z,98821.34
2023-05-22T06:25:41.831Z,98820.66
2023-05-22T06:28:46.410Z,98822.97
2023-05-22T06:31:50.585Z,98820.38
2023-05-22T06:34:56.553Z,98811.00
2023-05-22T06:38:02.206Z,98816.03
2023-05-22T06:41:08.039Z,98812.63
2023-05-22T06:44:12.319Z,98811.72
2023-05-22T06:47:17.052Z,98813.75
2023-05-22T06:50:21.089Z,98816.28
2023-05-22T06:53:25.508Z,98818.56
2023-05-22T06:56:30.870Z,98812.63
2023-05-22T06:59:39.494Z,98813.53
2023-05-22T07:02:43.518Z,98819.84
2023-05-22T07:06:13.545Z,98820.72
2023-05-22T07:09:17.915Z,98815.03
2023-05-22T07:12:26.193Z,98812.88
2023-05-22T07:15:31.066Z,98813.78
2023-05-22T07:18:40.077Z,98815.41
2023-05-22T07:21:43.864Z,98811.66
2023-05-22T07:24:49.906Z,98817.66
2023-05-22T07:27:58.768Z,98811.97
2023-05-22T07:31:22.496Z,98810.63
2023-05-22T07:34:32.238Z,98811.97
2023-05-22T07:37:36.551Z,98813.31
2023-05-22T07:40:40.788Z,98817.16
2023-05-22T07:43:46.257Z,98821.56
2023-05-22T07:46:54.656Z,98806.88
2023-05-22T07:49:59.963Z,98809.34
2023-05-22T07:53:04.840Z,98820.56
2023-05-22T07:56:13.431Z,98815.09
2023-05-22T07:59:21.644Z,98813.22
2023-05-22T08:02:25.741Z,98812.38
2023-05-22T08:05:29.523Z,98814.31
2023-05-22T08:08:33.821Z,98808.06
2023-05-22T08:11:40.252Z,98806.41
2023-05-22T08:14:45.576Z,98802.31
2023-05-22T08:17:49.366Z,98804.78
2023-05-22T08:20:54.879Z,98814.09
2023-05-22T08:23:58.774Z,98816.81
2023-05-22T08:27:02.978Z,98808.84
2023-05-22T08:30:09.847Z,98811.28
2023-05-22T08:33:13.932Z,98814.56
2023-05-22T08:36:17.826Z,98819.44
2023-05-22T08:39:21.965Z,98815.53
2023-05-22T08:42:26.410Z,98809.72
2023-05-22T08:45:34.387Z,98803.94
2023-05-22T08:48:40.263Z,98804.44
2023-05-22T08:51:48.925Z,98803.31
2023-05-22T08:54:57.503Z,98802.72
2023-05-22T08:58:02.804Z,98803.22
2023-05-22T09:01:10.554Z,98799.09
2023-05-22T09:04:15.347Z,98803.09
2023-05-22T09:07:22.556Z,98800.78
2023-05-22T09:10:26.818Z,98805.09
2023-05-22T09:13:32.826Z,98800.59
2023-05-22T09:16:47.817Z,98798.31
2023-05-22T09:19:51.848Z,98799.38
2023-05-22T09:22:56.698Z,98794.13
2023-05-22T09:26:03.930Z,98789.31
2023-05-22T09:29:08.665Z,98792.81
2023-05-22T09:32:17.669Z,98799.81
2023-05-22T09:35:22.332Z,98790.94
2023-05-22T09:38:31.007Z,98788.13
2023-05-22T09:41:39.158Z,98783.63
2023-05-22T09:44:44.482Z,98779.06
2023-05-22T09:47:52.096Z,98776.13
2023-05-22T09:50:56.942Z,98790.44
2023-05-22T09:54:06.754Z,98779.00
2023-05-22T09:57:18.185Z,98773.75
2023-05-22T10:00:24.170Z,98767.88
2023-05-22T10:03:30.044Z,98774.19
2023-05-22T10:06:35.488Z,98777.00
2023-05-22T10:09:43.485Z,98771.22
2023-05-22T10:12:54.376Z,98776.25
2023-05-22T10:16:00.310Z,98763.69
2023-05-22T10:19:07.704Z,98764.03
2023-05-22T10:22:20.790Z,98771.94
2023-05-22T10:25:25.839Z,98763.09
2023-05-22T10:28:43.180Z,98750.38
2023-05-22T10:31:59.635Z,98757.84
2023-05-22T10:35:21.114Z,98754.88
2023-05-22T10:38:54.564Z,98756.16
2023-05-22T10:41:58.352Z,98750.75
2023-05-22T10:45:03.166Z,98751.19
2023-05-22T10:48:10.369Z,98745.22
2023-05-22T10:51:20.826Z,98752.69
2023-05-22T10:54:42.181Z,98744.28
2023-05-22T10:57:46.801Z,98738.53
2023-05-22T11:00:50.713Z,98739.16
2023-05-22T11:03:57.654Z,98729.50
2023-05-22T11:07:09.632Z,98727.03
2023-05-22T11:10:13.596Z,98724.41
2023-05-22T11:13:19.478Z,98730.09
2023-05-22T11:16:23.411Z,98740.06
2023-05-22T11:19:27.828Z,98727.31
2023-05-22T11:22:42.949Z,98728.69
2023-05-22T11:25:46.991Z,98725.50
2023-05-22T11:28:53.334Z,98719.47
2023-05-22T11:31:58.401Z,98718.78
2023-05-22T11:35:04.010Z,98716.16
2023-05-22T11:38:10.151Z,98715.22
2023-05-22T11:41:14.003Z,98712.03
2023-05-22T11:44:17.732Z,98716.47
2023-05-22T11:47:21.670Z,98716.44
2023-05-22T11:50:43.210Z,98717.41
2023-05-22T11:53:49.183Z,98706.13
2023-05-22T11:56:52.735Z,98709.25
2023-05-22T11:59:56.577Z,98708.81
2023-05-22T12:03:00.406Z,98709.03
2023-05-22T12:06:06.643Z,98699.00
2023-05-22T12:09:12.448Z,98702.22
2023-05-22T12:12:17.629Z,98707.59
2023-05-22T12:15:21.497Z,98699.66
2023-05-22T12:18:25.537Z,98700.66
2023-05-22T12:21:29.912Z,98703.13
2023-05-22T12:24:40.952Z,98697.53
2023-05-22T12:27:46.071Z,98706.19
2023-05-22T12:30:54.705Z,98702.13
2023-05-22T12:33:58.909Z,98693.38
2023-05-22T12:37:03.117Z,98689.75
2023-05-22T12:40:10.989Z,98689.22
2023-05-22T12:43:14.976Z,98681.53
2023-05-22T12:46:18.793Z,98691.56
2023-05-22T12:49:22.575Z,98682.94
2023-05-22T12:52:26.303Z,98673.56
2023-05-22T12:55:31.756Z,98666.44
2023-05-22T12:58:35.579Z,98665.06
2023-05-22T13:01:39.581Z,98678.22
2023-05-22T13:04:43.394Z,98676.28
2023-05-22T13:07:47.950Z,98674.31
2023-05-22T13:10:52.990Z,98674.59
2023-05-22T13:13:59.020Z,98673.59
2023-05-22T13:17:02.801Z,98679.53
2023-05-22T13:20:10.298Z,98675.22
2023-05-22T13:23:14.313Z,98681.47
2023-05-22T13:26:19.933Z,98670.66
2023-05-22T13:29:23.823Z,98678.59
2023-05-22T13:32:27.728Z,98680.56
2023-05-22T13:35:31.577Z,98675.19
2023-05-22T13:38:35.595Z,98666.44
2023-05-22T13:41:40.813Z,98667.59
2023-05-22T13:44:45.028Z,98662.50
2023-05-22T13:47:49.771Z,98660.81
2023-05-22T13:50:53.708Z,98657.69
2023-05-22T13:53:57.427Z,98648.06
2023-05-22T13:57:03.574Z,98642.97
2023-05-22T14:00:09.613Z,98657.72
2023-05-22T14:03:17.616Z,98654.53
2023-05-22T14:06:21.708Z,98647.88
2023-05-22T14:09:25.840Z,98636.94
2023-05-22T14:12:30.921Z,98642.44
2023-05-22T14:15:34.888Z,98634.56
2023-05-22T14:18:38.505Z,98633.53
2023-05-22T14:21:42.405Z,98630.47
2023-05-22T14:24:46.306Z,98635.56
2023-05-22T14:27:51.437Z,98627.28
2023-05-22T14:30:55.302Z,98632.19
2023-05-22T14:33:59.140Z,98622.50
2023-05-22T14:37:03.553Z,98618.91
2023-05-22T14:40:09.453Z,98622.56
2023-05-22T14:43:14.889Z,98624.75
2023-05-22T14:46:18.782Z,98616.50
2023-05-22T14:49:22.554Z,98613.22
2023-05-22T14:52:26.254Z,98606.91
2023-05-22T14:55:30.078Z,98610.56
2023-05-22T14:58:35.201Z,98599.09
2023-05-22T15:01:39.392Z,98603.09
2023-05-22T15:04:44.653Z,98597.41
2023-05-22T15:07:51.240Z,98588.38
2023-05-22T15:10:55.406Z,98585.34
2023-05-22T15:14:00.615Z,98572.28
2023-05-22T15:17:04.379Z,98577.09
2023-05-22T15:20:09.362Z,98573.97
2023-05-22T15:23:13.162Z,98572.84
2023-05-22T15:26:17.100Z,98564.16
2023-05-22T15:29:22.291Z,98565.44
2023-05-22T15:32:30.856Z,98562.88
2023-05-22T15:35:34.840Z,98557.03
2023-05-22T15:38:41.307Z,98549.06
2023-05-22T15:41:54.559Z,98547.94
2023-05-22T15:45:10.045Z,98553.25
2023-05-22T15:48:16.569Z,98554.16
2023-05-22T15:51:20.638Z,98549.81
2023-05-22T15:54:24.558Z,98548.19
2023-05-22T15:57:29.200Z,98538.59
2023-05-22T16:00:38.730Z,98549.59
2023-05-22T16:03:42.982Z,98535.16
2023-05-22T16:06:46.814Z,98538.53
2023-05-22T16:09:54.410Z,98531.34
2023-05-22T16:12:58.846Z,98526.28
2023-05-22T16:16:06.177Z,98521.19
2023-05-22T16:19:10.243Z,98518.09
2023-05-22T16:22:14.127Z,98526.28
2023-05-22T16:25:19.040Z,98526.41
2023-05-22T16:28:23.169Z,98526.84
2023-05-22T16:31:28.741Z,98541.41
2023-05-22T16:34:39.446Z,98533.66
2023-05-22T16:37:43.578Z,98530.72
2023-05-22T16:40:47.577Z,98527.44
2023-05-22T16:43:51.743Z,98528.66
2023-05-22T16:46:56.966Z,98523.81
2023-05-22T16:50:01.546Z,98521.56
2023-05-22T16:53:05.540Z,98526.41
2023-05-22T16:56:09.658Z,98520.91
2023-05-22T16:59:13.570Z,98518.97
2023-05-22T17:02:19.300Z,98522.72
2023-05-22T17:05:24.253Z,98526.59
2023-05-22T17:08:28.455Z,98529.06
2023-05-22T17:11:32.230Z,98530.81
2023-05-22T17:14:36.364Z,98531.13
2023-05-22T17:17:41.820Z,98531.50
2023-05-22T17:20:45.669Z,98525.59
2023-05-22T17:23:49.692Z,98527.59
2023-05-22T17:26:53.435Z,98533.31
2023-05-22T17:29:57.432Z,98525.16
2023-05-22T17:33:03.728Z,98531.72
2023-05-22T17:36:07.899Z,98535.69
2023-05-22T17:39:11.703Z,98532.06
2023-05-22T17:42:15.444Z,98541.16
2023-05-22T17:45:19.309Z,98542.00
2023-05-22T17:48:27.193Z,98537.25
2023-05-22T17:51:31.126Z,98529.56
2023-05-22T17:54:35.447Z,98525.28
2023-05-22T17:57:39.369Z,98525.25
2023-05-22T18:00:43.956Z,98525.84
2023-05-22T18:03:49.272Z,98531.53
2023-05-22T18:06:53.648Z,98530.91
2023-05-22T18:09:57.403Z,98521.09
2023-05-22T18:13:01.379Z,98521.38
2023-05-22T18:16:05.544Z,98519.69
2023-05-22T18:19:11.247Z,98522.97
2023-05-22T18:22:15.076Z,98519.88
2023-05-22T18:25:19.144Z,98518.13
2023-05-22T18:28:26.617Z,98523.16
2023-05-22T18:31:30.912Z,98520.56
2023-05-22T18:34:37.259Z,98522.81
2023-05-22T18:37:42.260Z,98525.03
2023-05-22T18:40:47.225Z,98527.81
2023-05-22T18:43:51.229Z,98521.03
2023-05-22T18:46:54.959Z,98527.59
2023-05-22T18:50:00.414Z,98528.69
2023-05-22T18:53:04.169Z,98519.66
2023-05-22T18:56:08.424Z,98528.38
2023-05-22T18:59:12.192Z,98525.34
2023-05-22T19:02:17.136Z,98519.34
2023-05-22T19:05:22.725Z,98526.66
2023-05-22T19:08:26.715Z,98519.81
2023-05-22T19:11:31.070Z,98518.69
2023-05-22T19:14:35.144Z,98523.03
2023-05-22T19:17:39.050Z,98524.09
2023-05-22T19:20:45.927Z,98522.63
2023-05-22T19:23:51.422Z,98522.59
2023-05-22T19:26:55.687Z,98517.91
2023-05-22T19:29:59.412Z,98518.16
2023-05-22T19:33:05.959Z,98518.63
2023-05-22T19:36:13.209Z,98521.84
2023-05-22T19:39:17.425Z,98517.16
2023-05-22T19:42:21.284Z,98529.91
2023-05-22T19:45:26.037Z,98522.25
2023-05-22T19:48:31.553Z,98523.59
2023-05-22T19:51:37.952Z,98523.31
2023-05-22T19:54:41.806Z,98529.28
2023-05-22T19:57:46.583Z,98523.78
2023-05-22T20:00:51.212Z,98523.75
2023-05-22T20:03:56.533Z,98526.94
2023-05-22T20:07:02.116Z,98525.75
2023-05-22T20:10:07.746Z,98521.88
2023-05-22T20:13:11.617Z,98519.09
2023-05-22T20:16:16.204Z,98519.59
2023-05-22T20:19:20.332Z,98518.13
2023-05-22T20:22:25.921Z,98522.97
2023-05-22T20:25:29.725Z,98515.81
2023-05-22T20:28:34.090Z,98517.97
2023-05-22T20:31:37.922Z,98510.59
2023-05-22T20:35:09.364Z,98507.81
2023-05-22T20:38:14.897Z,98510.78
2023-05-22T20:41:19.570Z,98514.59
2023-05-22T20:44:24.609Z,98509.41
2023-05-22T20:47:28.815Z,98508.84
2023-05-22T20:50:36.144Z,98512.91
2023-05-22T20:53:43.168Z,98506.91
2023-05-22T20:56:46.981Z,98504.94
2023-05-22T20:59:50.612Z,98501.38
2023-05-22T21:02:55.358Z,98506.97
2023-05-22T21:06:01.062Z,98513.72
2023-05-22T21:09:06.190Z,98508.56
2023-05-22T21:12:10.036Z,98509.63
2023-05-22T21:15:13.824Z,98513.94
2023-05-22T21:18:19.244Z,98512.47
2023-05-22T21:21:23.082Z,98509.72
2023-05-22T21:24:28.345Z,98512.34
2023-05-22T21:27:32.264Z,98503.03
2023-05-22T21:30:36.045Z,98507.09
2023-05-22T21:33:39.824Z,98505.13
2023-05-22T21:36:43.500Z,98513.50
2023-05-22T21:39:48.726Z,98515.66
2023-05-22T21:42:53.132Z,98520.25
2023-05-22T21:45:56.905Z,98514.53
2023-05-22T21:49:03.086Z,98510.09
2023-05-22T21:52:07.164Z,98515.44
2023-05-22T21:55:12.579Z,98515.38
2023-05-22T21:58:16.424Z,98512.09
2023-05-22T22:01:20.242Z,98517.53
2023-05-22T22:04:24.280Z,98507.97
2023-05-22T22:07:28.175Z,98512.25
2023-05-22T22:10:33.651Z,98510.31
2023-05-22T22:13:37.510Z,98507.03
2023-05-22T22:16:41.379Z,98505.88
2023-05-22T22:19:46.079Z,98506.34
2023-05-22T22:22:49.991Z,98501.13
2023-05-22T22:25:55.219Z,98497.50
2023-05-22T22:28:59.207Z,98490.97
2023-05-22T22:32:03.297Z,98493.56
2023-05-22T22:35:08.739Z,98492.41
2023-05-22T22:38:12.469Z,98491.53
2023-05-22T22:41:17.860Z,98483.06
2023-05-22T22:44:21.639Z,98484.03
2023-05-22T22:47:26.040Z,98484.22
2023-05-22T22:50:29.829Z,98489.78
2023-05-22T22:53:33.677Z,98488.06
2023-05-22T22:56:39.288Z,98473.59
2023-05-22T22:59:44.399Z,98470.59
2023-05-22T23:02:48.118Z,98475.88
2023-05-22T23:05:52.212Z,98477.94
2023-05-22T23:08:57.268Z,98477.59
2023-05-22T23:12:02.704Z,98478.31
2023-05-22T23:15:09.164Z,98478.78
2023-05-22T23:18:14.145Z,98474.13
2023-05-22T23:21:17.953Z,98464.25
2023-05-22T23:24:22.054Z,98467.44
2023-05-22T23:27:27.601Z,98461.94
2023-05-22T23:30:31.498Z,98459.38
2023-05-22T23:33:35.325Z,98457.06
2023-05-22T23:36:39.193Z,98447.44
2023-05-22T23:39:42.979Z,98447.34
2023-05-22T23:42:48.551Z,98447.00
2023-05-22T23:45:52.410Z,98440.44
2023-05-22T23:48:57.005Z,98442.47
2023-05-22T23:52:01.240Z,98436.34
2023-05-22T23:55:06.150Z,98436.16
2023-05-22T23:58:11.442Z,98433.25
